Time;durP1;ratioP1;P1;durP2;ratioP2;P2;SDS_P1;SDS_P2;PMS_P1;PMS_P2;Temp;Humidity;BMP_temperature;BMP_pressure;BME280_temperature;BME280_humidity;BME280_pressure;Samples;Min_cycle;Max_cycle;Signal;HPM_P1;HPM_P2
2024/03/17 00:00:25;;;;;;;2.15;1.92;;;5.30;99.90;;;;;;5057438;28;20198;-75
2024/03/17 00:02:52;;;;;;;3.17;2.60;;;5.30;99.90;;;;;;5049174;28;20270;-75
2024/03/17 00:05:18;;;;;;;2.25;2.05;;;5.30;99.90;;;;;;5049243;28;20543;-76
2024/03/17 00:07:46;;;;;;;5.63;2.85;;;5.30;99.90;;;;;;5049205;28;20201;-75
2024/03/17 00:10:12;;;;;;;2.10;1.92;;;5.20;99.90;;;;;;5053878;28;20208;-75
2024/03/17 00:12:39;;;;;;;2.37;2.17;;;5.20;99.90;;;;;;5048568;28;20233;-75
2024/03/17 00:15:06;;;;;;;2.60;2.40;;;5.20;99.90;;;;;;5050107;28;20201;-75
2024/03/17 00:17:33;;;;;;;4.15;2.65;;;5.20;99.90;;;;;;5051087;28;20288;-75
2024/03/17 00:20:01;;;;;;;3.28;2.70;;;5.20;99.90;;;;;;5050903;28;20209;-75
2024/03/17 00:22:28;;;;;;;2.05;1.83;;;5.20;99.90;;;;;;5049955;28;20259;-76
2024/03/17 00:24:56;;;;;;;4.07;2.65;;;5.20;99.90;;;;;;5051224;28;20206;-75
2024/03/17 00:27:23;;;;;;;3.72;2.95;;;5.20;99.90;;;;;;5050936;28;20212;-75
2024/03/17 00:29:49;;;;;;;3.78;3.17;;;5.20;99.90;;;;;;5052993;28;20225;-76
2024/03/17 00:32:17;;;;;;;3.23;2.37;;;5.20;99.90;;;;;;5050680;28;20267;-76
2024/03/17 00:34:43;;;;;;;3.22;2.67;;;5.20;99.90;;;;;;5051541;28;20201;-76
2024/03/17 00:37:09;;;;;;;4.63;2.27;;;5.20;99.90;;;;;;5050985;28;20205;-75
2024/03/17 00:39:35;;;;;;;3.30;2.50;;;5.10;99.90;;;;;;5050355;28;20209;-75
2024/03/17 00:42:03;;;;;;;3.13;2.80;;;5.10;99.90;;;;;;5050502;28;20716;-75
2024/03/17 00:44:29;;;;;;;6.25;2.55;;;5.10;99.90;;;;;;5050263;28;20813;-76
2024/03/17 00:46:56;;;;;;;3.33;2.53;;;5.10;99.90;;;;;;5050962;28;20204;-75
2024/03/17 00:49:21;;;;;;;3.40;2.80;;;5.20;99.90;;;;;;5050835;28;20205;-75
2024/03/17 00:51:49;;;;;;;3.97;2.50;;;5.20;99.90;;;;;;5050937;28;20225;-75
2024/03/17 00:54:17;;;;;;;4.60;2.42;;;5.10;99.90;;;;;;5050680;28;20281;-75
2024/03/17 00:56:44;;;;;;;3.15;2.45;;;5.10;99.90;;;;;;5050349;28;20213;-74
2024/03/17 00:59:11;;;;;;;4.68;3.40;;;5.10;99.90;;;;;;5050514;28;20232;-74
2024/03/17 01:01:38;;;;;;;3.42;2.45;;;5.10;99.90;;;;;;5049813;28;20724;-74
2024/03/17 01:04:04;;;;;;;4.57;3.45;;;5.10;99.90;;;;;;5050483;28;20296;-74
2024/03/17 01:06:32;;;;;;;5.00;2.53;;;5.10;99.90;;;;;;5050191;28;20287;-74
2024/03/17 01:08:57;;;;;;;2.88;2.47;;;5.00;99.90;;;;;;5050491;28;20220;-73
2024/03/17 01:11:25;;;;;;;3.43;2.63;;;5.10;99.90;;;;;;5049408;28;20304;-73
2024/03/17 01:13:50;;;;;;;3.25;2.65;;;5.00;99.90;;;;;;5050398;28;20201;-73
2024/03/17 01:16:18;;;;;;;3.20;2.53;;;5.00;99.90;;;;;;5053091;28;20198;-73
2024/03/17 01:18:45;;;;;;;2.38;2.17;;;5.00;99.90;;;;;;5054245;28;20201;-73
2024/03/17 01:21:12;;;;;;;3.25;2.95;;;5.00;99.90;;;;;;5053329;28;20229;-73
2024/03/17 01:23:39;;;;;;;4.68;2.20;;;5.00;99.90;;;;;;5053922;28;20201;-73
2024/03/17 01:26:05;;;;;;;3.38;2.85;;;5.00;99.90;;;;;;5054291;28;20208;-73
2024/03/17 01:28:32;;;;;;;4.43;2.90;;;5.00;99.90;;;;;;5053706;28;20208;-74
2024/03/17 01:30:57;;;;;;;4.30;3.08;;;5.00;99.90;;;;;;5053390;28;20221;-73
2024/03/17 01:33:25;;;;;;;4.17;3.23;;;5.10;99.90;;;;;;5053774;28;20210;-73
2024/03/17 01:35:51;;;;;;;2.95;2.58;;;5.00;99.90;;;;;;5054008;28;20213;-73
2024/03/17 01:38:18;;;;;;;3.20;2.90;;;5.00;99.90;;;;;;5053676;28;20798;-73
2024/03/17 01:40:44;;;;;;;3.00;2.50;;;5.10;99.90;;;;;;5053449;28;20232;-73
2024/03/17 01:43:11;;;;;;;4.03;3.17;;;5.10;99.90;;;;;;5053382;28;20236;-74
2024/03/17 01:45:38;;;;;;;3.05;2.53;;;5.10;99.90;;;;;;5053361;28;20621;-73
2024/03/17 01:48:14;;;;;;;3.75;2.90;;;5.10;99.90;;;;;;5053780;28;20205;-74
2024/03/17 01:50:44;;;;;;;3.97;3.28;;;5.20;99.90;;;;;;5059896;28;20233;-74
2024/03/17 01:53:13;;;;;;;4.28;2.97;;;5.20;99.90;;;;;;5053203;28;20682;-73
2024/03/17 01:55:43;;;;;;;3.60;3.00;;;5.30;99.90;;;;;;5060170;28;20202;-73
2024/03/17 01:58:10;;;;;;;3.55;2.88;;;5.30;99.90;;;;;;5053644;28;20216;-74
2024/03/17 02:00:38;;;;;;;4.20;2.75;;;5.40;99.90;;;;;;5052824;28;20288;-73
2024/03/17 02:03:04;;;;;;;2.47;2.28;;;5.40;99.90;;;;;;5053218;28;20226;-73
2024/03/17 02:05:31;;;;;;;4.25;3.60;;;5.50;99.90;;;;;;5052989;28;20228;-74
2024/03/17 02:07:58;;;;;;;4.03;3.30;;;5.50;99.90;;;;;;5053008;28;20201;-74
2024/03/17 02:10:25;;;;;;;3.47;2.55;;;5.50;99.90;;;;;;5052839;28;20233;-73
2024/03/17 02:12:51;;;;;;;5.07;3.70;;;5.50;99.90;;;;;;5060567;28;20316;-74
2024/03/17 02:15:18;;;;;;;2.95;2.40;;;5.60;99.90;;;;;;5052803;28;20205;-74
2024/03/17 02:17:44;;;;;;;3.60;2.72;;;5.60;99.90;;;;;;5053005;28;20588;-74
2024/03/17 02:20:11;;;;;;;3.60;3.30;;;5.60;99.90;;;;;;5052898;28;20254;-73
2024/03/17 02:22:39;;;;;;;4.75;3.72;;;5.60;99.90;;;;;;5052201;28;20225;-73
2024/03/17 02:25:08;;;;;;;4.50;3.53;;;5.70;99.90;;;;;;5053102;28;20202;-73
2024/03/17 02:27:34;;;;;;;2.55;2.28;;;5.70;99.90;;;;;;5051309;28;20305;-74
2024/03/17 02:30:00;;;;;;;3.93;3.43;;;5.70;99.90;;;;;;5052612;28;20284;-73
2024/03/17 02:32:27;;;;;;;4.05;2.70;;;5.70;99.90;;;;;;5052018;28;20801;-74
2024/03/17 02:34:54;;;;;;;6.03;3.80;;;5.70;99.90;;;;;;5052985;28;20201;-74
2024/03/17 02:37:20;;;;;;;2.50;2.22;;;5.80;99.90;;;;;;5052495;28;20212;-74
2024/03/17 02:39:48;;;;;;;4.87;3.40;;;5.80;99.90;;;;;;5052540;28;20658;-74
2024/03/17 02:42:15;;;;;;;4.05;3.47;;;5.80;99.90;;;;;;5052364;28;20229;-74
2024/03/17 02:44:41;;;;;;;4.60;2.90;;;5.80;99.90;;;;;;5052267;28;20201;-73
2024/03/17 02:47:09;;;;;;;6.43;3.90;;;5.80;99.90;;;;;;5052688;28;20647;-74
2024/03/17 02:49:39;;;;;;;3.92;3.03;;;5.80;99.90;;;;;;5051895;28;20205;-74
2024/03/17 02:52:07;;;;;;;3.13;2.78;;;5.80;99.90;;;;;;5052074;28;20601;-74
2024/03/17 02:54:35;;;;;;;4.47;3.53;;;5.80;99.90;;;;;;5052058;28;20216;-74
2024/03/17 02:57:03;;;;;;;4.40;2.88;;;5.80;99.90;;;;;;5052550;28;20209;-73
2024/03/17 02:59:30;;;;;;;5.22;3.70;;;5.80;99.90;;;;;;5051780;28;20217;-74
2024/03/17 03:01:57;;;;;;;4.07;3.65;;;5.70;99.90;;;;;;5052006;28;20225;-74
2024/03/17 03:04:24;;;;;;;5.07;3.65;;;5.70;99.90;;;;;;5052017;28;20212;-74
2024/03/17 03:06:51;;;;;;;5.28;3.00;;;5.60;99.90;;;;;;5052197;28;20214;-74
2024/03/17 03:09:25;;;;;;;3.33;3.03;;;5.60;99.90;;;;;;5051979;28;20209;-74
2024/03/17 03:11:52;;;;;;;6.65;3.10;;;5.60;99.90;;;;;;5051840;28;20245;-74
2024/03/17 03:14:21;;;;;;;5.43;3.33;;;5.60;99.90;;;;;;5052199;28;20209;-74
2024/03/17 03:16:49;;;;;;;5.85;3.75;;;5.60;99.90;;;;;;5060031;28;20197;-74
2024/03/17 03:19:15;;;;;;;3.65;2.80;;;5.60;99.90;;;;;;5051654;28;20214;-74
2024/03/17 03:21:42;;;;;;;4.70;3.67;;;5.60;99.90;;;;;;5050993;28;20225;-74
2024/03/17 03:24:09;;;;;;;2.63;2.40;;;5.60;99.90;;;;;;5052035;28;20209;-73
2024/03/17 03:26:35;;;;;;;5.57;3.40;;;5.50;99.90;;;;;;5051479;28;20201;-74
2024/03/17 03:29:04;;;;;;;4.45;2.90;;;5.50;99.90;;;;;;5051839;28;20622;-74
2024/03/17 03:31:32;;;;;;;3.65;2.85;;;5.50;99.90;;;;;;5050791;28;20337;-74
2024/03/17 03:34:01;;;;;;;5.60;2.50;;;5.60;99.90;;;;;;5051828;28;20201;-74
2024/03/17 03:36:28;;;;;;;3.95;2.92;;;5.50;99.90;;;;;;5051285;28;20209;-74
2024/03/17 03:38:55;;;;;;;5.05;3.38;;;5.50;99.90;;;;;;5051119;28;20213;-74
2024/03/17 03:41:24;;;;;;;4.68;3.30;;;5.50;99.90;;;;;;5051061;28;20222;-74
2024/03/17 03:43:51;;;;;;;5.05;3.13;;;5.50;99.90;;;;;;5059388;28;20212;-74
2024/03/17 03:46:18;;;;;;;5.40;3.95;;;5.50;99.90;;;;;;5051467;28;20209;-74
2024/03/17 03:48:46;;;;;;;6.32;4.18;;;5.50;99.90;;;;;;5050884;28;20209;-74
2024/03/17 03:51:12;;;;;;;4.30;2.70;;;5.50;99.90;;;;;;5050805;28;20205;-74
2024/03/17 03:53:39;;;;;;;4.35;3.03;;;5.40;99.90;;;;;;5050983;28;20217;-74
2024/03/17 03:56:07;;;;;;;4.63;3.35;;;5.40;99.90;;;;;;5051282;28;20209;-74
2024/03/17 03:58:35;;;;;;;5.35;3.83;;;5.30;99.90;;;;;;5050972;28;20205;-74
2024/03/17 04:01:01;;;;;;;9.55;3.92;;;5.30;99.90;;;;;;5050500;28;20213;-74
2024/03/17 04:03:28;;;;;;;4.85;3.13;;;5.30;99.90;;;;;;5050905;28;20203;-74
2024/03/17 04:06:04;;;;;;;4.13;3.00;;;5.30;99.90;;;;;;5051097;28;20216;-74
2024/03/17 04:08:31;;;;;;;6.15;3.33;;;5.30;99.90;;;;;;5050930;28;20224;-74
2024/03/17 04:10:57;;;;;;;8.82;4.57;;;5.30;99.90;;;;;;5050444;28;20205;-74
2024/03/17 04:13:24;;;;;;;6.10;3.08;;;5.30;99.90;;;;;;5051084;28;20225;-74
2024/03/17 04:15:56;;;;;;;3.65;3.20;;;5.30;99.90;;;;;;5050673;28;20205;-74
2024/03/17 04:18:24;;;;;;;4.35;3.53;;;5.30;99.90;;;;;;5051109;28;20728;-74
2024/03/17 04:20:51;;;;;;;7.10;3.25;;;5.30;99.90;;;;;;5049812;28;20225;-74
2024/03/17 04:23:19;;;;;;;6.80;3.47;;;5.30;99.90;;;;;;5051001;28;20244;-74
2024/03/17 04:25:46;;;;;;;5.30;3.33;;;5.30;99.90;;;;;;5050566;28;20213;-74
2024/03/17 04:28:13;;;;;;;5.00;3.67;;;5.30;99.90;;;;;;5050899;28;20233;-74
2024/03/17 04:30:41;;;;;;;5.90;4.10;;;5.30;99.90;;;;;;5050183;28;20308;-74
2024/03/17 04:33:07;;;;;;;4.25;3.10;;;5.30;99.90;;;;;;5050495;28;20355;-73
2024/03/17 04:35:37;;;;;;;5.25;4.18;;;5.30;99.90;;;;;;5050464;28;20201;-73
2024/03/17 04:38:04;;;;;;;4.70;3.88;;;5.30;99.90;;;;;;5050706;28;20205;-74
2024/03/17 04:40:32;;;;;;;6.00;4.05;;;5.30;99.90;;;;;;5059063;28;20209;-74
2024/03/17 04:42:58;;;;;;;6.63;4.05;;;5.30;99.90;;;;;;5050261;28;20232;-74
2024/03/17 04:45:26;;;;;;;6.22;3.90;;;5.30;99.90;;;;;;5050781;28;20215;-74
2024/03/17 04:47:52;;;;;;;7.07;4.47;;;5.30;99.90;;;;;;5050398;28;20209;-73
2024/03/17 04:50:21;;;;;;;4.30;3.58;;;5.30;99.90;;;;;;5051847;28;20205;-74
2024/03/17 04:52:48;;;;;;;6.97;4.97;;;5.20;99.90;;;;;;5053949;28;20323;-74
2024/03/17 04:55:16;;;;;;;5.30;3.28;;;5.30;99.90;;;;;;5054792;28;20583;-74
2024/03/17 04:57:44;;;;;;;7.25;3.75;;;5.30;99.90;;;;;;5054299;28;20197;-74
2024/03/17 05:00:12;;;;;;;5.13;3.55;;;5.30;99.90;;;;;;5054427;28;20197;-74
2024/03/17 05:02:39;;;;;;;4.70;3.58;;;5.30;99.90;;;;;;5053921;28;20263;-74
2024/03/17 05:05:08;;;;;;;4.88;4.38;;;5.30;99.90;;;;;;5054571;28;20201;-74
2024/03/17 05:07:34;;;;;;;4.50;4.05;;;5.30;99.90;;;;;;5054237;28;20581;-74
2024/03/17 05:10:01;;;;;;;4.72;3.50;;;5.20;99.90;;;;;;5054513;28;20235;-74
2024/03/17 05:12:28;;;;;;;5.25;3.00;;;5.20;99.90;;;;;;5053881;28;20225;-74
2024/03/17 05:14:56;;;;;;;4.60;3.58;;;5.10;99.90;;;;;;5054044;28;20205;-74
2024/03/17 05:17:22;;;;;;;6.85;3.97;;;5.10;99.90;;;;;;5054357;28;20205;-74
2024/03/17 05:19:49;;;;;;;4.60;3.70;;;5.10;99.90;;;;;;5053574;28;20212;-74
2024/03/17 05:22:16;;;;;;;7.53;3.97;;;5.10;99.90;;;;;;5053777;28;20222;-74
2024/03/17 05:24:42;;;;;;;10.98;4.68;;;5.10;99.90;;;;;;5053939;28;20202;-74
2024/03/17 05:27:09;;;;;;;7.35;4.82;;;5.10;99.90;;;;;;5054291;28;20698;-74
2024/03/17 05:29:37;;;;;;;6.70;4.40;;;5.10;99.90;;;;;;5053641;28;20243;-74
2024/03/17 05:32:06;;;;;;;5.90;4.57;;;5.10;99.90;;;;;;5053491;28;20280;-74
2024/03/17 05:34:34;;;;;;;7.80;4.13;;;5.10;99.90;;;;;;5053942;28;20200;-74
2024/03/17 05:37:01;;;;;;;7.65;4.60;;;5.00;99.90;;;;;;5066978;28;20632;-75
2024/03/17 05:39:28;;;;;;;7.45;4.38;;;5.10;99.90;;;;;;5058145;28;20208;-74
2024/03/17 05:41:55;;;;;;;5.10;3.97;;;5.10;99.90;;;;;;5053135;28;20583;-74
2024/03/17 05:44:21;;;;;;;6.20;4.85;;;5.10;99.90;;;;;;5053883;28;20201;-74
2024/03/17 05:46:48;;;;;;;7.13;4.18;;;5.10;99.90;;;;;;5053447;28;20208;-74
2024/03/17 05:49:16;;;;;;;4.65;3.92;;;5.10;99.90;;;;;;5053520;28;20209;-74
2024/03/17 05:51:43;;;;;;;6.60;4.28;;;5.10;99.90;;;;;;5052938;28;20229;-74
2024/03/17 05:54:11;;;;;;;9.00;6.15;;;5.20;99.90;;;;;;5053649;28;20218;-74
2024/03/17 05:56:38;;;;;;;8.82;5.88;;;5.20;99.90;;;;;;5053315;28;20205;-74
2024/03/17 05:59:05;;;;;;;7.65;4.15;;;5.10;99.90;;;;;;5053599;28;20197;-75
2024/03/17 06:01:32;;;;;;;11.10;4.72;;;5.20;99.90;;;;;;5052642;28;20232;-74
2024/03/17 06:03:59;;;;;;;8.70;5.28;;;5.20;99.90;;;;;;5053070;28;20213;-74
2024/03/17 06:06:27;;;;;;;5.80;4.18;;;5.10;99.90;;;;;;5053503;28;20259;-74
2024/03/17 06:08:54;;;;;;;7.07;4.30;;;5.10;99.90;;;;;;5053056;28;20213;-74
2024/03/17 06:11:21;;;;;;;4.72;3.95;;;5.00;99.90;;;;;;5052579;28;20749;-74
2024/03/17 06:13:47;;;;;;;4.55;4.10;;;5.10;99.90;;;;;;5052862;28;20713;-75
2024/03/17 06:16:14;;;;;;;6.20;4.28;;;5.10;99.90;;;;;;5053413;28;20201;-75
2024/03/17 06:18:41;;;;;;;4.95;4.45;;;5.10;99.90;;;;;;5052924;28;20580;-74
2024/03/17 06:21:09;;;;;;;6.50;4.70;;;5.20;99.90;;;;;;5052376;28;20237;-74
2024/03/17 06:23:37;;;;;;;6.13;4.07;;;5.40;99.90;;;;;;5053083;28;20255;-74
2024/03/17 06:26:05;;;;;;;6.10;4.60;;;5.50;99.90;;;;;;5052666;28;20208;-74
2024/03/17 06:28:32;;;;;;;7.25;4.32;;;5.60;99.90;;;;;;5053021;28;20569;-74
2024/03/17 06:31:01;;;;;;;5.70;4.00;;;5.70;99.90;;;;;;5051829;28;20740;-74
2024/03/17 06:33:29;;;;;;;6.60;4.78;;;5.80;99.90;;;;;;5052882;28;20217;-73
2024/03/17 06:35:56;;;;;;;7.32;4.40;;;5.90;99.90;;;;;;5052630;28;20202;-74
2024/03/17 06:38:22;;;;;;;8.57;4.75;;;6.10;99.90;;;;;;5052885;28;20205;-74
2024/03/17 06:40:51;;;;;;;7.97;4.70;;;6.30;99.90;;;;;;5052209;28;20627;-74
2024/03/17 06:43:19;;;;;;;6.95;5.40;;;6.40;99.90;;;;;;5052779;28;20231;-74
2024/03/17 06:45:54;;;;;;;9.38;5.13;;;6.70;99.90;;;;;;5052414;28;20293;-75
2024/03/17 06:48:21;;;;;;;5.60;4.10;;;6.90;99.90;;;;;;5052567;28;20705;-74
2024/03/17 06:50:48;;;;;;;6.82;4.40;;;7.10;99.90;;;;;;5062539;28;20225;-74
2024/03/17 06:53:15;;;;;;;8.13;5.07;;;7.30;99.90;;;;;;5052247;28;20234;-74
2024/03/17 06:55:41;;;;;;;6.15;5.00;;;7.50;99.90;;;;;;5052583;28;20219;-73
2024/03/17 06:58:09;;;;;;;5.60;4.13;;;7.70;99.90;;;;;;5052441;28;20211;-74
2024/03/17 07:00:36;;;;;;;6.75;5.45;;;7.90;99.90;;;;;;5052158;28;20201;-74
2024/03/17 07:03:03;;;;;;;6.55;4.90;;;8.10;99.90;;;;;;5052045;28;20228;-74
2024/03/17 07:05:32;;;;;;;6.35;5.45;;;8.30;99.90;;;;;;5052545;28;20212;-74
2024/03/17 07:07:59;;;;;;;8.65;5.60;;;8.50;99.90;;;;;;5052444;28;20208;-74
2024/03/17 07:10:26;;;;;;;11.00;5.38;;;8.80;99.90;;;;;;5052577;28;20566;-74
2024/03/17 07:12:53;;;;;;;6.93;5.80;;;9.10;99.90;;;;;;5050677;28;20233;-73
2024/03/17 07:15:21;;;;;;;7.82;5.35;;;9.30;99.90;;;;;;5052349;28;20205;-74
2024/03/17 07:17:47;;;;;;;9.75;7.00;;;9.60;99.90;;;;;;5051811;28;20216;-73
2024/03/17 07:20:14;;;;;;;7.22;5.95;;;9.40;99.90;;;;;;5051713;28;20215;-74
2024/03/17 07:22:41;;;;;;;8.25;5.22;;;9.60;99.90;;;;;;5051516;28;20638;-74
2024/03/17 07:25:09;;;;;;;6.60;5.22;;;9.70;99.90;;;;;;5051701;28;20201;-74
2024/03/17 07:27:37;;;;;;;7.78;5.10;;;9.90;99.90;;;;;;5051840;28;20207;-74
2024/03/17 07:30:05;;;;;;;9.50;5.80;;;10.30;99.90;;;;;;5051252;28;20583;-74
2024/03/17 07:32:34;;;;;;;7.65;6.00;;;10.70;99.90;;;;;;5051246;28;20232;-74
2024/03/17 07:35:01;;;;;;;7.20;5.47;;;11.20;99.90;;;;;;5051482;28;20201;-74
2024/03/17 07:37:28;;;;;;;8.40;6.50;;;11.50;99.90;;;;;;5051577;28;20325;-74
2024/03/17 07:39:54;;;;;;;7.97;6.03;;;11.70;99.90;;;;;;5051203;28;20212;-74
2024/03/17 07:42:21;;;;;;;7.50;5.63;;;12.10;99.90;;;;;;5051145;28;20217;-74
2024/03/17 07:44:48;;;;;;;9.53;5.93;;;12.40;99.90;;;;;;5051789;28;20201;-74
2024/03/17 07:47:14;;;;;;;7.53;6.77;;;12.70;99.90;;;;;;5053459;28;20467;-74
2024/03/17 07:49:42;;;;;;;8.37;6.40;;;12.80;99.90;;;;;;5051704;28;20467;-74
2024/03/17 07:52:09;;;;;;;7.50;5.43;;;13.20;99.90;;;;;;5048487;28;20487;-73
2024/03/17 07:54:36;;;;;;;7.03;5.53;;;13.50;99.90;;;;;;5052610;28;20491;-73
2024/03/17 07:57:03;;;;;;;7.37;5.80;;;13.50;99.90;;;;;;5052706;28;20558;-73
2024/03/17 07:59:30;;;;;;;4.97;4.33;;;13.20;99.90;;;;;;5050204;28;20550;-73
2024/03/17 08:01:57;;;;;;;5.70;4.40;;;12.70;99.90;;;;;;5049000;28;20479;-73
2024/03/17 08:04:24;;;;;;;6.60;5.40;;;12.30;99.90;;;;;;5051295;28;20888;-73
2024/03/17 08:06:52;;;;;;;5.90;5.30;;;12.30;99.90;;;;;;5049923;28;20475;-73
2024/03/17 08:09:19;;;;;;;5.10;4.50;;;12.20;99.90;;;;;;5049797;28;20471;-73
2024/03/17 08:11:46;;;;;;;5.77;5.17;;;11.90;99.90;;;;;;5049907;28;20487;-73
2024/03/17 08:14:14;;;;;;;4.93;4.43;;;11.80;99.90;;;;;;5048672;28;20519;-73
2024/03/17 08:16:41;;;;;;;7.20;4.83;;;11.70;99.90;;;;;;5050761;28;20514;-73
2024/03/17 08:19:08;;;;;;;6.68;4.80;;;11.60;99.90;;;;;;5050669;28;20458;-73
2024/03/17 08:21:35;;;;;;;5.80;4.70;;;11.70;99.90;;;;;;5049180;28;20794;-73
2024/03/17 08:24:03;;;;;;;5.03;4.40;;;11.80;99.90;;;;;;5049832;28;20464;-71
2024/03/17 08:26:30;;;;;;;6.50;4.50;;;12.30;99.90;;;;;;5059946;28;20471;-73
2024/03/17 08:28:57;;;;;;;6.20;5.20;;;12.80;99.90;;;;;;5052412;28;20460;-73
2024/03/17 08:31:25;;;;;;;6.43;5.67;;;12.90;99.90;;;;;;5057765;28;20514;-73
2024/03/17 08:33:51;;;;;;;5.73;4.70;;;13.00;99.90;;;;;;5068004;28;21139;-73
2024/03/17 08:36:20;;;;;;;6.73;4.60;;;12.90;99.90;;;;;;5066234;28;20458;-73
2024/03/17 08:38:47;;;;;;;6.20;5.57;;;12.80;99.90;;;;;;5061354;28;20976;-74
2024/03/17 08:41:16;;;;;;;6.80;4.87;;;12.80;99.90;;;;;;5059668;28;20494;-74
2024/03/17 08:43:43;;;;;;;5.80;4.90;;;12.80;99.90;;;;;;5060640;28;20893;-74
2024/03/17 08:46:13;;;;;;;6.23;5.10;;;13.00;99.90;;;;;;5069070;28;20463;-74
2024/03/17 08:48:41;;;;;;;5.33;4.53;;;13.30;99.90;;;;;;5058039;28;20451;-74
2024/03/17 08:51:08;;;;;;;5.77;4.67;;;13.80;99.90;;;;;;5050443;28;20463;-74
2024/03/17 08:53:35;;;;;;;5.00;4.40;;;14.50;99.90;;;;;;5067612;28;20490;-74
2024/03/17 08:56:03;;;;;;;3.57;3.27;;;15.00;99.90;;;;;;5057626;28;20504;-74
2024/03/17 08:58:31;;;;;;;3.30;2.93;;;15.40;99.90;;;;;;5063295;28;20475;-74
2024/03/17 09:00:58;;;;;;;6.67;3.83;;;15.90;99.90;;;;;;5059368;28;20470;-74
2024/03/17 09:03:26;;;;;;;4.20;3.80;;;16.00;99.90;;;;;;5057507;28;20455;-73
2024/03/17 09:05:54;;;;;;;6.07;3.73;;;15.90;99.90;;;;;;5057786;28;20475;-74
2024/03/17 09:08:22;;;;;;;3.63;3.20;;;15.90;99.90;;;;;;5061066;28;20458;-74
2024/03/17 09:10:52;;;;;;;3.97;3.57;;;16.10;99.90;;;;;;5065123;28;20981;-74
2024/03/17 09:13:20;;;;;;;4.17;3.13;;;16.10;99.90;;;;;;5060459;28;20494;-74
2024/03/17 09:15:56;;;;;;;4.63;3.60;;;16.10;99.90;;;;;;5059103;28;20464;-74
2024/03/17 09:18:23;;;;;;;3.93;3.33;;;15.90;99.90;;;;;;5067783;28;20481;-74
2024/03/17 09:20:58;;;;;;;5.80;4.00;;;16.00;99.90;;;;;;5058514;28;20466;-74
2024/03/17 09:23:26;;;;;;;4.40;3.90;;;16.20;99.90;;;;;;5057259;28;20868;-74
2024/03/17 09:25:57;;;;;;;4.33;3.93;;;16.50;99.90;;;;;;5065317;28;20497;-74
2024/03/17 09:28:23;;;;;;;4.07;3.50;;;16.40;99.90;;;;;;5052573;28;21025;-74
2024/03/17 09:30:52;;;;;;;6.13;4.00;;;16.40;99.90;;;;;;5057296;28;20550;-74
2024/03/17 09:33:20;;;;;;;4.30;3.30;;;16.10;99.90;;;;;;5048693;28;20569;-74
2024/03/17 09:35:54;;;;;;;4.80;3.53;;;16.00;99.90;;;;;;5064650;28;20474;-74
2024/03/17 09:38:21;;;;;;;4.20;2.97;;;16.00;99.90;;;;;;5064111;28;20471;-74
2024/03/17 09:40:49;;;;;;;2.90;2.30;;;16.00;99.90;;;;;;5054661;28;20550;-74
2024/03/17 09:43:16;;;;;;;3.20;2.73;;;15.90;99.90;;;;;;5062335;28;20489;-74
2024/03/17 09:45:43;;;;;;;3.10;2.60;;;15.60;99.90;;;;;;5070797;28;20466;-74
2024/03/17 09:48:15;;;;;;;3.00;2.67;;;15.30;99.90;;;;;;5055284;28;20463;-74
2024/03/17 09:50:49;;;;;;;3.67;3.07;;;15.00;99.90;;;;;;5064814;28;20666;-74
2024/03/17 09:53:19;;;;;;;2.47;2.27;;;14.80;99.90;;;;;;5060244;28;20482;-74
2024/03/17 09:55:47;;;;;;;4.47;2.17;;;14.70;99.90;;;;;;5060868;28;20499;-74
2024/03/17 09:58:17;;;;;;;2.63;2.00;;;14.60;99.90;;;;;;5060694;28;20467;-74
2024/03/17 10:00:44;;;;;;;2.40;2.20;;;14.50;99.90;;;;;;5066676;28;20462;-74
2024/03/17 10:03:11;;;;;;;2.53;2.17;;;14.50;99.90;;;;;;5070260;28;20481;-74
2024/03/17 10:05:38;;;;;;;2.93;2.23;;;14.50;99.90;;;;;;5053299;28;20470;-74
2024/03/17 10:08:08;;;;;;;2.47;2.27;;;14.50;99.90;;;;;;5069534;28;20963;-74
2024/03/17 10:10:35;;;;;;;2.50;2.30;;;14.80;99.90;;;;;;5071493;28;20477;-74
2024/03/17 10:13:02;;;;;;;3.83;2.33;;;15.40;99.90;;;;;;5072039;28;20501;-74
2024/03/17 10:15:29;;;;;;;2.43;1.80;;;16.10;99.90;;;;;;5067927;28;21000;-72
2024/03/17 10:17:56;;;;;;;2.67;2.10;;;16.40;99.90;;;;;;5055222;28;20466;-72
2024/03/17 10:20:26;;;;;;;3.30;2.57;;;16.40;99.90;;;;;;5065252;28;20476;-72
2024/03/17 10:23:03;;;;;;;2.90;1.93;;;16.00;99.90;;;;;;5066916;28;20489;-72
2024/03/17 10:25:33;;;;;;;2.37;2.07;;;16.00;99.90;;;;;;5062582;28;20467;-72
2024/03/17 10:28:00;;;;;;;3.33;2.37;;;15.70;99.90;;;;;;5068084;28;20497;-72
2024/03/17 10:30:29;;;;;;;2.57;2.37;;;15.90;99.90;;;;;;5059818;28;20491;-72
2024/03/17 10:32:58;;;;;;;2.07;1.97;;;16.30;99.90;;;;;;5071306;28;21003;-72
2024/03/17 10:35:29;;;;;;;2.70;2.50;;;17.20;99.90;;;;;;5060733;28;20486;-72
2024/03/17 10:37:58;;;;;;;2.60;2.40;;;18.10;99.90;;;;;;5051996;28;20459;-72
2024/03/17 10:40:26;;;;;;;2.77;2.57;;;18.30;99.90;;;;;;5053444;28;20516;-73
2024/03/17 10:42:55;;;;;;;2.73;2.47;;;18.40;99.90;;;;;;5059699;28;20480;-73
2024/03/17 10:45:22;;;;;;;2.60;2.23;;;18.60;99.90;;;;;;5050554;28;20654;-72
2024/03/17 10:47:51;;;;;;;3.70;2.27;;;18.80;99.90;;;;;;5056192;28;20467;-72
2024/03/17 10:50:19;;;;;;;2.70;2.50;;;18.90;99.90;;;;;;5059826;28;20468;-72
2024/03/17 10:52:49;;;;;;;3.33;2.77;;;18.70;99.90;;;;;;5065293;28;20532;-72
2024/03/17 10:55:23;;;;;;;2.97;2.57;;;18.30;99.90;;;;;;5063450;28;20509;-72
2024/03/17 10:57:51;;;;;;;2.73;2.43;;;19.00;99.90;;;;;;5065684;28;20467;-72
2024/03/17 11:00:21;;;;;;;3.33;2.00;;;19.70;99.90;;;;;;5057227;28;20474;-73
2024/03/17 11:02:50;;;;;;;3.40;3.10;;;20.10;99.60;;;;;;5056950;28;20925;-73
2024/03/17 11:05:20;;;;;;;2.77;2.10;;;20.40;99.10;;;;;;5063714;28;20464;-72
2024/03/17 11:07:49;;;;;;;3.23;2.73;;;19.90;99.20;;;;;;5056008;28;20502;-72
2024/03/17 11:10:20;;;;;;;3.87;2.70;;;19.20;99.90;;;;;;5059066;28;20528;-73
2024/03/17 11:12:49;;;;;;;2.80;2.50;;;18.20;99.90;;;;;;5064883;28;20518;-73
2024/03/17 11:15:40;;;;;;;3.80;2.20;;;17.50;99.90;;;;;;5054253;28;20538;-73
2024/03/17 11:18:33;;;;;;;2.43;2.00;;;17.10;99.90;;;;;;5066805;28;20538;-73
2024/03/17 11:24:34;;;;;;;2.13;1.70;;;16.50;99.90;;;;;;5060425;28;20531;-74
2024/03/17 11:27:06;;;;;;;2.47;2.20;;;16.30;99.90;;;;;;5060149;28;20975;-74
2024/03/17 11:29:47;;;;;;;2.53;2.33;;;16.30;99.90;;;;;;5057434;28;20471;-74
2024/03/17 11:32:27;;;;;;;2.33;2.10;;;16.30;99.90;;;;;;5059368;28;20979;-74
2024/03/17 11:35:14;;;;;;;2.20;2.00;;;16.10;99.90;;;;;;5058718;28;20485;-74
2024/03/17 11:37:43;;;;;;;3.33;2.57;;;15.90;99.90;;;;;;5059653;28;20460;-74
2024/03/17 11:40:25;;;;;;;2.47;2.20;;;15.60;99.90;;;;;;5051459;28;20558;-74
2024/03/17 11:43:01;;;;;;;2.37;2.17;;;15.50;99.90;;;;;;5064294;28;20474;-74
2024/03/17 11:45:28;;;;;;;3.47;2.00;;;15.10;99.90;;;;;;5064869;28;20459;-74
2024/03/17 11:47:58;;;;;;;2.23;1.93;;;15.20;99.90;;;;;;5056492;28;20470;-75
2024/03/17 11:53:34;;;;;;;2.00;1.33;;;15.50;99.90;;;;;;5205625;22;20491;-76
2024/03/17 11:56:03;;;;;;;2.33;2.13;;;15.80;99.90;;;;;;5041567;28;20479;-72
2024/03/17 11:58:36;;;;;;;2.10;1.90;;;15.70;99.90;;;;;;5040873;28;20503;-73
2024/03/17 12:01:06;;;;;;;1.80;1.70;;;15.80;99.90;;;;;;5043278;28;20468;-74
2024/03/17 12:03:34;;;;;;;2.00;1.80;;;16.00;99.90;;;;;;5028192;28;21260;-73
2024/03/17 12:06:01;;;;;;;1.27;1.17;;;16.10;99.90;;;;;;5042128;28;20463;-73
2024/03/17 12:08:33;;;;;;;2.37;1.93;;;15.90;99.90;;;;;;5043274;28;20996;-73
2024/03/17 12:11:01;;;;;;;1.47;1.17;;;15.60;99.90;;;;;;5029647;28;20473;-73
2024/03/17 12:13:34;;;;;;;1.50;1.40;;;15.30;99.90;;;;;;5036295;28;20464;-74
2024/03/17 12:16:11;;;;;;;2.20;1.10;;;15.20;99.90;;;;;;5042444;28;20486;-73
2024/03/17 12:18:41;;;;;;;2.20;1.40;;;15.00;99.90;;;;;;5037500;28;20476;-73
2024/03/17 12:21:13;;;;;;;2.37;1.40;;;14.90;99.90;;;;;;5042146;28;20982;-73
2024/03/17 12:23:41;;;;;;;2.30;1.33;;;15.00;99.90;;;;;;5034811;28;20534;-73
2024/03/17 12:26:16;;;;;;;1.43;1.30;;;15.20;99.90;;;;;;5036728;28;20467;-73
2024/03/17 12:28:46;;;;;;;4.23;2.20;;;15.40;99.90;;;;;;5036477;28;20953;-73
2024/03/17 12:31:12;;;;;;;2.87;1.43;;;15.50;99.90;;;;;;5034212;28;21081;-73
2024/03/17 12:33:44;;;;;;;2.10;1.50;;;15.50;99.90;;;;;;5039344;28;20460;-73
2024/03/17 12:36:12;;;;;;;2.13;1.63;;;15.50;99.90;;;;;;5037224;28;20481;-73
2024/03/17 12:38:39;;;;;;;1.43;1.17;;;15.40;99.90;;;;;;5043114;28;20480;-73
2024/03/17 12:41:09;;;;;;;1.67;1.40;;;15.30;99.90;;;;;;5035089;28;20470;-73
2024/03/17 12:43:37;;;;;;;2.83;1.60;;;15.30;99.90;;;;;;5038269;28;20468;-73
2024/03/17 12:46:03;;;;;;;1.73;1.43;;;15.40;99.90;;;;;;5036700;28;20468;-74
2024/03/17 12:48:29;;;;;;;1.70;1.57;;;15.30;99.90;;;;;;5036308;28;20475;-74
2024/03/17 12:50:57;;;;;;;2.13;1.80;;;15.40;99.90;;;;;;5038418;28;20468;-74
2024/03/17 12:53:23;;;;;;;1.60;1.13;;;15.40;99.90;;;;;;5038611;28;20507;-74
2024/03/17 13:01:22;;;;;;;1.33;1.23;;;15.40;99.90;;;;;;5037508;28;20474;-73
2024/03/17 13:03:50;;;;;;;3.27;1.53;;;15.40;99.90;;;;;;5039581;28;20464;-73
2024/03/17 13:06:25;;;;;;;2.17;1.60;;;15.10;99.90;;;;;;5039629;28;20498;-74
2024/03/17 13:08:51;;;;;;;1.30;1.20;;;14.90;99.90;;;;;;5040246;28;20489;-74